sensor_id;sensor_type;location;lat;lon;timestamp;P1;durP1;ratioP1;P2;durP2;ratioP2
9948;SDS011;5013;51.840;8.276;2023-04-12T00:02:18;9.93;;;4.03;;
9948;SDS011;5013;51.840;8.276;2023-04-12T00:04:44;6.03;;;3.53;;
9948;SDS011;5013;51.840;8.276;2023-04-12T00:07:09;7.67;;;4.07;;
9948;SDS011;5013;51.840;8.276;2023-04-12T00:09:35;10.30;;;3.83;;
9948;SDS011;5013;51.840;8.276;2023-04-12T00:12:02;10.47;;;4.33;;
9948;SDS011;5013;51.840;8.276;2023-04-12T00:14:28;9.83;;;3.93;;
9948;SDS011;5013;51.840;8.276;2023-04-12T00:16:54;10.23;;;3.73;;
9948;SDS011;5013;51.840;8.276;2023-04-12T00:19:20;7.60;;;3.23;;
9948;SDS011;5013;51.840;8.276;2023-04-12T00:21:45;11.80;;;3.90;;
9948;SDS011;5013;51.840;8.276;2023-04-12T00:24:11;8.60;;;3.57;;
9948;SDS011;5013;51.840;8.276;2023-04-12T00:26:37;6.77;;;3.37;;
9948;SDS011;5013;51.840;8.276;2023-04-12T00:29:02;10.67;;;3.27;;
9948;SDS011;5013;51.840;8.276;2023-04-12T00:31:28;7.47;;;3.40;;
9948;SDS011;5013;51.840;8.276;2023-04-12T00:33:54;8.50;;;3.40;;
9948;SDS011;5013;51.840;8.276;2023-04-12T00:36:19;7.93;;;3.03;;
9948;SDS011;5013;51.840;8.276;2023-04-12T00:38:46;8.60;;;3.53;;
9948;SDS011;5013;51.840;8.276;2023-04-12T00:41:12;12.53;;;3.60;;
9948;SDS011;5013;51.840;8.276;2023-04-12T00:43:39;9.03;;;3.63;;
9948;SDS011;5013;51.840;8.276;2023-04-12T00:46:06;8.77;;;3.27;;
9948;SDS011;5013;51.840;8.276;2023-04-12T00:48:32;8.30;;;3.57;;
9948;SDS011;5013;51.840;8.276;2023-04-12T00:50:58;5.13;;;3.03;;
9948;SDS011;5013;51.840;8.276;2023-04-12T00:53:24;6.70;;;3.03;;
9948;SDS011;5013;51.840;8.276;2023-04-12T00:55:51;5.30;;;2.70;;
9948;SDS011;5013;51.840;8.276;2023-04-12T00:58:17;10.80;;;2.70;;
9948;SDS011;5013;51.840;8.276;2023-04-12T01:00:43;9.87;;;2.90;;
9948;SDS011;5013;51.840;8.276;2023-04-12T01:03:14;9.07;;;3.63;;
9948;SDS011;5013;51.840;8.276;2023-04-12T01:05:49;7.90;;;2.70;;
9948;SDS011;5013;51.840;8.276;2023-04-12T01:08:27;8.90;;;3.17;;
9948;SDS011;5013;51.840;8.276;2023-04-12T01:11:05;10.00;;;2.90;;
9948;SDS011;5013;51.840;8.276;2023-04-12T01:14:02;6.40;;;3.10;;
9948;SDS011;5013;51.840;8.276;2023-04-12T01:16:56;5.93;;;3.00;;
9948;SDS011;5013;51.840;8.276;2023-04-12T01:25:00;9.20;;;2.80;;
9948;SDS011;5013;51.840;8.276;2023-04-12T01:27:30;6.73;;;2.70;;
9948;SDS011;5013;51.840;8.276;2023-04-12T01:30:03;12.73;;;3.43;;
9948;SDS011;5013;51.840;8.276;2023-04-12T01:32:31;9.60;;;3.10;;
9948;SDS011;5013;51.840;8.276;2023-04-12T01:35:00;8.53;;;2.90;;
9948;SDS011;5013;51.840;8.276;2023-04-12T01:37:28;10.53;;;2.73;;
9948;SDS011;5013;51.840;8.276;2023-04-12T01:39:54;6.63;;;3.03;;
9948;SDS011;5013;51.840;8.276;2023-04-12T01:42:20;5.93;;;2.43;;
9948;SDS011;5013;51.840;8.276;2023-04-12T01:44:46;8.23;;;2.77;;
9948;SDS011;5013;51.840;8.276;2023-04-12T01:47:13;6.90;;;2.60;;
9948;SDS011;5013;51.840;8.276;2023-04-12T01:49:44;11.70;;;2.80;;
9948;SDS011;5013;51.840;8.276;2023-04-12T01:52:31;6.50;;;2.70;;
9948;SDS011;5013;51.840;8.276;2023-04-12T01:55:03;4.83;;;2.63;;
9948;SDS011;5013;51.840;8.276;2023-04-12T01:57:30;8.17;;;2.70;;
9948;SDS011;5013;51.840;8.276;2023-04-12T01:59:57;7.83;;;2.50;;
9948;SDS011;5013;51.840;8.276;2023-04-12T02:02:24;8.03;;;2.80;;
9948;SDS011;5013;51.840;8.276;2023-04-12T02:04:50;6.93;;;2.67;;
9948;SDS011;5013;51.840;8.276;2023-04-12T02:07:17;10.43;;;2.40;;
9948;SDS011;5013;51.840;8.276;2023-04-12T02:09:44;6.20;;;2.40;;
9948;SDS011;5013;51.840;8.276;2023-04-12T02:12:10;9.70;;;2.80;;
9948;SDS011;5013;51.840;8.276;2023-04-12T02:14:36;7.40;;;2.37;;
9948;SDS011;5013;51.840;8.276;2023-04-12T02:17:02;6.13;;;2.50;;
9948;SDS011;5013;51.840;8.276;2023-04-12T02:19:28;10.40;;;3.00;;
9948;SDS011;5013;51.840;8.276;2023-04-12T02:21:53;4.80;;;2.80;;
9948;SDS011;5013;51.840;8.276;2023-04-12T02:24:19;7.67;;;2.60;;
9948;SDS011;5013;51.840;8.276;2023-04-12T02:26:45;8.03;;;2.70;;
9948;SDS011;5013;51.840;8.276;2023-04-12T02:29:13;9.87;;;2.70;;
9948;SDS011;5013;51.840;8.276;2023-04-12T02:31:39;7.00;;;2.53;;
9948;SDS011;5013;51.840;8.276;2023-04-12T02:34:05;9.27;;;2.90;;
9948;SDS011;5013;51.840;8.276;2023-04-12T02:36:31;8.43;;;3.00;;
9948;SDS011;5013;51.840;8.276;2023-04-12T02:38:57;9.67;;;2.70;;
9948;SDS011;5013;51.840;8.276;2023-04-12T02:41:22;9.13;;;3.30;;
9948;SDS011;5013;51.840;8.276;2023-04-12T02:43:48;8.40;;;2.60;;
9948;SDS011;5013;51.840;8.276;2023-04-12T02:46:16;6.67;;;2.70;;
9948;SDS011;5013;51.840;8.276;2023-04-12T02:48:47;7.97;;;2.90;;
9948;SDS011;5013;51.840;8.276;2023-04-12T02:51:13;8.07;;;3.07;;
9948;SDS011;5013;51.840;8.276;2023-04-12T02:53:38;12.63;;;2.93;;
9948;SDS011;5013;51.840;8.276;2023-04-12T02:56:04;9.03;;;3.07;;
9948;SDS011;5013;51.840;8.276;2023-04-12T02:58:30;10.27;;;3.07;;
9948;SDS011;5013;51.840;8.276;2023-04-12T03:00:58;8.40;;;2.70;;
9948;SDS011;5013;51.840;8.276;2023-04-12T03:03:24;5.20;;;2.77;;
9948;SDS011;5013;51.840;8.276;2023-04-12T03:05:52;9.17;;;3.10;;
9948;SDS011;5013;51.840;8.276;2023-04-12T03:08:18;7.00;;;2.73;;
9948;SDS011;5013;51.840;8.276;2023-04-12T03:10:44;8.60;;;2.97;;
9948;SDS011;5013;51.840;8.276;2023-04-12T03:13:09;8.63;;;2.73;;
9948;SDS011;5013;51.840;8.276;2023-04-12T03:15:35;8.87;;;2.90;;
9948;SDS011;5013;51.840;8.276;2023-04-12T03:18:01;7.67;;;2.73;;
9948;SDS011;5013;51.840;8.276;2023-04-12T03:20:27;14.20;;;3.67;;
9948;SDS011;5013;51.840;8.276;2023-04-12T03:22:52;10.17;;;3.03;;
9948;SDS011;5013;51.840;8.276;2023-04-12T03:25:18;7.23;;;2.50;;
9948;SDS011;5013;51.840;8.276;2023-04-12T03:27:44;9.47;;;2.80;;
9948;SDS011;5013;51.840;8.276;2023-04-12T03:30:10;5.40;;;2.53;;
9948;SDS011;5013;51.840;8.276;2023-04-12T03:32:36;7.63;;;2.70;;
9948;SDS011;5013;51.840;8.276;2023-04-12T03:35:06;7.70;;;2.83;;
9948;SDS011;5013;51.840;8.276;2023-04-12T03:37:32;8.67;;;3.00;;
9948;SDS011;5013;51.840;8.276;2023-04-12T03:39:58;8.03;;;3.27;;
9948;SDS011;5013;51.840;8.276;2023-04-12T03:42:24;9.60;;;2.70;;
9948;SDS011;5013;51.840;8.276;2023-04-12T03:44:51;8.73;;;3.23;;
9948;SDS011;5013;51.840;8.276;2023-04-12T03:47:17;6.53;;;2.97;;
9948;SDS011;5013;51.840;8.276;2023-04-12T03:49:43;6.00;;;3.10;;
9948;SDS011;5013;51.840;8.276;2023-04-12T03:52:09;8.13;;;3.00;;
9948;SDS011;5013;51.840;8.276;2023-04-12T03:54:35;10.40;;;2.90;;
9948;SDS011;5013;51.840;8.276;2023-04-12T03:57:01;5.47;;;2.80;;
9948;SDS011;5013;51.840;8.276;2023-04-12T03:59:27;6.13;;;2.90;;
9948;SDS011;5013;51.840;8.276;2023-04-12T04:01:53;7.20;;;2.80;;
9948;SDS011;5013;51.840;8.276;2023-04-12T04:04:19;8.80;;;3.00;;
9948;SDS011;5013;51.840;8.276;2023-04-12T04:06:46;10.30;;;3.00;;
9948;SDS011;5013;51.840;8.276;2023-04-12T04:09:12;9.97;;;3.23;;
9948;SDS011;5013;51.840;8.276;2023-04-12T04:11:38;8.03;;;3.07;;
9948;SDS011;5013;51.840;8.276;2023-04-12T04:14:04;6.93;;;2.70;;
9948;SDS011;5013;51.840;8.276;2023-04-12T04:16:30;9.10;;;3.03;;
9948;SDS011;5013;51.840;8.276;2023-04-12T04:18:55;6.93;;;3.43;;
9948;SDS011;5013;51.840;8.276;2023-04-12T04:21:21;5.83;;;2.53;;
9948;SDS011;5013;51.840;8.276;2023-04-12T04:23:47;8.70;;;2.80;;
9948;SDS011;5013;51.840;8.276;2023-04-12T04:26:16;8.37;;;3.17;;
9948;SDS011;5013;51.840;8.276;2023-04-12T04:28:43;8.70;;;2.80;;
9948;SDS011;5013;51.840;8.276;2023-04-12T04:31:11;10.57;;;2.60;;
9948;SDS011;5013;51.840;8.276;2023-04-12T04:33:37;7.77;;;3.00;;
9948;SDS011;5013;51.840;8.276;2023-04-12T04:36:04;6.23;;;2.83;;
9948;SDS011;5013;51.840;8.276;2023-04-12T04:38:31;5.90;;;2.80;;
9948;SDS011;5013;51.840;8.276;2023-04-12T04:41:01;11.33;;;3.53;;
9948;SDS011;5013;51.840;8.276;2023-04-12T04:43:27;9.47;;;2.83;;
9948;SDS011;5013;51.840;8.276;2023-04-12T04:45:58;10.93;;;3.23;;
9948;SDS011;5013;51.840;8.276;2023-04-12T04:48:23;8.43;;;2.73;;
9948;SDS011;5013;51.840;8.276;2023-04-12T04:50:49;8.10;;;2.33;;
9948;SDS011;5013;51.840;8.276;2023-04-12T04:53:18;9.17;;;2.90;;
9948;SDS011;5013;51.840;8.276;2023-04-12T04:55:45;4.90;;;2.53;;
9948;SDS011;5013;51.840;8.276;2023-04-12T04:58:11;5.67;;;2.40;;
9948;SDS011;5013;51.840;8.276;2023-04-12T05:00:37;8.37;;;2.60;;
9948;SDS011;5013;51.840;8.276;2023-04-12T05:03:03;6.03;;;2.43;;
9948;SDS011;5013;51.840;8.276;2023-04-12T05:05:29;8.73;;;2.70;;
9948;SDS011;5013;51.840;8.276;2023-04-12T05:07:55;4.60;;;2.27;;
9948;SDS011;5013;51.840;8.276;2023-04-12T05:10:22;4.87;;;2.40;;
9948;SDS011;5013;51.840;8.276;2023-04-12T05:12:47;7.93;;;2.77;;
9948;SDS011;5013;51.840;8.276;2023-04-12T05:15:13;4.53;;;2.20;;
9948;SDS011;5013;51.840;8.276;2023-04-12T05:17:39;6.47;;;2.10;;
9948;SDS011;5013;51.840;8.276;2023-04-12T05:20:05;4.13;;;2.10;;
9948;SDS011;5013;51.840;8.276;2023-04-12T05:22:32;4.57;;;1.80;;
9948;SDS011;5013;51.840;8.276;2023-04-12T05:24:59;4.77;;;2.47;;
9948;SDS011;5013;51.840;8.276;2023-04-12T05:27:25;5.83;;;1.87;;
9948;SDS011;5013;51.840;8.276;2023-04-12T05:29:51;9.57;;;1.97;;
9948;SDS011;5013;51.840;8.276;2023-04-12T05:32:21;4.40;;;2.20;;
9948;SDS011;5013;51.840;8.276;2023-04-12T05:34:46;3.43;;;1.80;;
9948;SDS011;5013;51.840;8.276;2023-04-12T05:37:12;3.43;;;2.03;;
9948;SDS011;5013;51.840;8.276;2023-04-12T05:39:37;2.50;;;1.90;;
9948;SDS011;5013;51.840;8.276;2023-04-12T05:42:03;4.20;;;1.80;;
9948;SDS011;5013;51.840;8.276;2023-04-12T05:44:29;4.10;;;2.30;;
9948;SDS011;5013;51.840;8.276;2023-04-12T05:46:54;3.23;;;1.60;;
9948;SDS011;5013;51.840;8.276;2023-04-12T05:49:20;2.50;;;1.77;;
9948;SDS011;5013;51.840;8.276;2023-04-12T05:51:45;3.03;;;1.70;;
9948;SDS011;5013;51.840;8.276;2023-04-12T05:54:11;4.83;;;1.77;;
9948;SDS011;5013;51.840;8.276;2023-04-12T05:56:36;2.60;;;1.70;;
9948;SDS011;5013;51.840;8.276;2023-04-12T05:59:02;4.03;;;1.70;;
9948;SDS011;5013;51.840;8.276;2023-04-12T06:01:29;4.00;;;1.63;;
9948;SDS011;5013;51.840;8.276;2023-04-12T06:03:56;1.67;;;1.57;;
9948;SDS011;5013;51.840;8.276;2023-04-12T06:06:22;3.33;;;1.60;;
9948;SDS011;5013;51.840;8.276;2023-04-12T06:08:47;5.53;;;1.73;;
9948;SDS011;5013;51.840;8.276;2023-04-12T06:11:13;2.63;;;1.60;;
9948;SDS011;5013;51.840;8.276;2023-04-12T06:13:40;1.90;;;1.40;;
9948;SDS011;5013;51.840;8.276;2023-04-12T06:16:05;3.20;;;1.53;;
9948;SDS011;5013;51.840;8.276;2023-04-12T06:18:31;2.97;;;1.60;;
9948;SDS011;5013;51.840;8.276;2023-04-12T06:20:57;2.43;;;1.33;;
9948;SDS011;5013;51.840;8.276;2023-04-12T06:23:22;3.43;;;1.50;;
9948;SDS011;5013;51.840;8.276;2023-04-12T06:25:48;2.83;;;1.77;;
9948;SDS011;5013;51.840;8.276;2023-04-12T06:28:14;3.63;;;1.83;;
9948;SDS011;5013;51.840;8.276;2023-04-12T06:30:40;4.17;;;2.20;;
9948;SDS011;5013;51.840;8.276;2023-04-12T06:33:06;1.87;;;1.53;;
9948;SDS011;5013;51.840;8.276;2023-04-12T06:35:32;3.93;;;1.60;;
9948;SDS011;5013;51.840;8.276;2023-04-12T06:37:58;4.00;;;2.13;;
9948;SDS011;5013;51.840;8.276;2023-04-12T06:40:23;3.30;;;1.90;;
9948;SDS011;5013;51.840;8.276;2023-04-12T06:42:49;2.93;;;1.67;;
9948;SDS011;5013;51.840;8.276;2023-04-12T06:45:14;5.10;;;2.07;;
9948;SDS011;5013;51.840;8.276;2023-04-12T06:47:40;6.13;;;2.10;;
9948;SDS011;5013;51.840;8.276;2023-04-12T06:50:06;3.33;;;1.80;;
9948;SDS011;5013;51.840;8.276;2023-04-12T06:52:32;2.20;;;1.60;;
9948;SDS011;5013;51.840;8.276;2023-04-12T06:54:57;4.67;;;1.90;;
9948;SDS011;5013;51.840;8.276;2023-04-12T06:57:23;8.33;;;2.20;;
9948;SDS011;5013;51.840;8.276;2023-04-12T06:59:49;4.63;;;1.70;;
9948;SDS011;5013;51.840;8.276;2023-04-12T07:02:15;3.47;;;1.90;;
9948;SDS011;5013;51.840;8.276;2023-04-12T07:04:40;5.70;;;2.13;;
9948;SDS011;5013;51.840;8.276;2023-04-12T07:07:06;7.27;;;2.03;;
9948;SDS011;5013;51.840;8.276;2023-04-12T07:09:31;3.33;;;2.10;;
9948;SDS011;5013;51.840;8.276;2023-04-12T07:11:58;6.27;;;1.93;;
9948;SDS011;5013;51.840;8.276;2023-04-12T07:14:24;7.10;;;2.53;;
9948;SDS011;5013;51.840;8.276;2023-04-12T07:16:50;6.43;;;2.20;;
9948;SDS011;5013;51.840;8.276;2023-04-12T07:19:15;4.43;;;2.30;;
9948;SDS011;5013;51.840;8.276;2023-04-12T07:21:41;9.30;;;2.97;;
9948;SDS011;5013;51.840;8.276;2023-04-12T07:24:07;7.73;;;2.40;;
9948;SDS011;5013;51.840;8.276;2023-04-12T07:26:32;6.43;;;2.53;;
9948;SDS011;5013;51.840;8.276;2023-04-12T07:28:58;9.13;;;2.60;;
9948;SDS011;5013;51.840;8.276;2023-04-12T07:31:23;6.57;;;2.60;;
9948;SDS011;5013;51.840;8.276;2023-04-12T07:33:49;12.90;;;3.13;;
9948;SDS011;5013;51.840;8.276;2023-04-12T07:36:15;5.57;;;2.33;;
9948;SDS011;5013;51.840;8.276;2023-04-12T07:38:41;6.77;;;2.50;;
9948;SDS011;5013;51.840;8.276;2023-04-12T07:41:06;5.70;;;2.50;;
9948;SDS011;5013;51.840;8.276;2023-04-12T07:43:33;5.10;;;2.70;;
9948;SDS011;5013;51.840;8.276;2023-04-12T07:45:59;3.57;;;2.00;;
9948;SDS011;5013;51.840;8.276;2023-04-12T07:48:28;6.43;;;2.60;;
9948;SDS011;5013;51.840;8.276;2023-04-12T07:50:54;7.33;;;2.40;;
9948;SDS011;5013;51.840;8.276;2023-04-12T07:53:20;2.73;;;2.27;;
9948;SDS011;5013;51.840;8.276;2023-04-12T07:55:47;7.00;;;2.40;;
9948;SDS011;5013;51.840;8.276;2023-04-12T07:58:14;9.70;;;2.17;;
9948;SDS011;5013;51.840;8.276;2023-04-12T08:00:40;4.03;;;1.80;;
9948;SDS011;5013;51.840;8.276;2023-04-12T08:03:05;2.90;;;2.13;;
9948;SDS011;5013;51.840;8.276;2023-04-12T08:05:31;2.63;;;2.17;;
9948;SDS011;5013;51.840;8.276;2023-04-12T08:07:56;4.13;;;2.00;;
9948;SDS011;5013;51.840;8.276;2023-04-12T08:10:22;5.03;;;2.47;;
9948;SDS011;5013;51.840;8.276;2023-04-12T08:12:47;4.50;;;1.90;;
9948;SDS011;5013;51.840;8.276;2023-04-12T08:15:13;6.50;;;2.27;;
9948;SDS011;5013;51.840;8.276;2023-04-12T08:17:38;4.47;;;2.33;;
9948;SDS011;5013;51.840;8.276;2023-04-12T08:20:07;5.40;;;2.10;;
9948;SDS011;5013;51.840;8.276;2023-04-12T08:22:33;2.97;;;2.10;;
9948;SDS011;5013;51.840;8.276;2023-04-12T08:24:59;3.03;;;2.00;;
9948;SDS011;5013;51.840;8.276;2023-04-12T08:27:25;1.90;;;1.70;;
9948;SDS011;5013;51.840;8.276;2023-04-12T08:29:51;5.47;;;2.50;;
9948;SDS011;5013;51.840;8.276;2023-04-12T08:32:17;4.40;;;2.00;;
9948;SDS011;5013;51.840;8.276;2023-04-12T08:34:42;5.77;;;1.90;;
9948;SDS011;5013;51.840;8.276;2023-04-12T08:37:08;4.20;;;2.00;;
9948;SDS011;5013;51.840;8.276;2023-04-12T08:39:33;6.63;;;2.30;;
9948;SDS011;5013;51.840;8.276;2023-04-12T08:41:59;3.47;;;1.63;;
9948;SDS011;5013;51.840;8.276;2023-04-12T08:44:31;3.83;;;1.80;;
9948;SDS011;5013;51.840;8.276;2023-04-12T08:47:00;3.90;;;1.80;;
9948;SDS011;5013;51.840;8.276;2023-04-12T08:49:30;1.50;;;1.40;;
9948;SDS011;5013;51.840;8.276;2023-04-12T08:52:02;1.50;;;1.40;;
9948;SDS011;5013;51.840;8.276;2023-04-12T08:54:32;1.90;;;1.80;;
9948;SDS011;5013;51.840;8.276;2023-04-12T08:56:59;1.83;;;1.70;;
9948;SDS011;5013;51.840;8.276;2023-04-12T08:59:27;1.50;;;1.40;;
9948;SDS011;5013;51.840;8.276;2023-04-12T09:01:54;3.10;;;1.60;;
9948;SDS011;5013;51.840;8.276;2023-04-12T09:04:20;5.13;;;1.70;;
9948;SDS011;5013;51.840;8.276;2023-04-12T09:06:46;3.67;;;1.50;;
9948;SDS011;5013;51.840;8.276;2023-04-12T09:09:12;3.63;;;1.53;;
9948;SDS011;5013;51.840;8.276;2023-04-12T09:11:37;2.40;;;1.37;;
9948;SDS011;5013;51.840;8.276;2023-04-12T09:14:03;3.30;;;1.27;;
9948;SDS011;5013;51.840;8.276;2023-04-12T09:16:49;4.10;;;1.60;;
9948;SDS011;5013;51.840;8.276;2023-04-12T09:19:18;1.77;;;1.30;;
9948;SDS011;5013;51.840;8.276;2023-04-12T09:21:55;3.70;;;1.50;;
9948;SDS011;5013;51.840;8.276;2023-04-12T09:24:21;4.87;;;1.47;;
9948;SDS011;5013;51.840;8.276;2023-04-12T09:27:00;5.07;;;1.30;;
9948;SDS011;5013;51.840;8.276;2023-04-12T09:29:27;1.80;;;1.20;;
9948;SDS011;5013;51.840;8.276;2023-04-12T09:32:01;2.77;;;1.20;;
9948;SDS011;5013;51.840;8.276;2023-04-12T09:34:31;4.07;;;1.50;;
9948;SDS011;5013;51.840;8.276;2023-04-12T09:36:57;3.40;;;1.70;;
9948;SDS011;5013;51.840;8.276;2023-04-12T09:39:30;3.50;;;1.50;;
9948;SDS011;5013;51.840;8.276;2023-04-12T09:42:06;2.13;;;1.37;;
9948;SDS011;5013;51.840;8.276;2023-04-12T09:44:33;1.57;;;1.13;;
9948;SDS011;5013;51.840;8.276;2023-04-12T09:46:59;1.43;;;1.10;;
9948;SDS011;5013;51.840;8.276;2023-04-12T09:49:38;1.33;;;1.13;;
9948;SDS011;5013;51.840;8.276;2023-04-12T09:52:09;2.07;;;1.40;;
9948;SDS011;5013;51.840;8.276;2023-04-12T09:54:42;2.17;;;1.30;;
9948;SDS011;5013;51.840;8.276;2023-04-12T09:57:10;2.10;;;1.53;;
9948;SDS011;5013;51.840;8.276;2023-04-12T09:59:38;3.20;;;1.40;;
9948;SDS011;5013;51.840;8.276;2023-04-12T10:02:15;2.50;;;1.30;;
9948;SDS011;5013;51.840;8.276;2023-04-12T10:04:47;9.27;;;1.67;;
9948;SDS011;5013;51.840;8.276;2023-04-12T10:07:13;1.50;;;1.40;;
9948;SDS011;5013;51.840;8.276;2023-04-12T10:09:40;3.07;;;1.47;;
9948;SDS011;5013;51.840;8.276;2023-04-12T10:12:06;1.13;;;1.13;;
9948;SDS011;5013;51.840;8.276;2023-04-12T10:14:33;1.20;;;1.17;;
9948;SDS011;5013;51.840;8.276;2023-04-12T10:17:02;2.37;;;1.30;;
9948;SDS011;5013;51.840;8.276;2023-04-12T10:19:29;1.70;;;1.60;;
9948;SDS011;5013;51.840;8.276;2023-04-12T10:21:57;2.77;;;1.50;;
9948;SDS011;5013;51.840;8.276;2023-04-12T10:24:24;3.53;;;1.40;;
9948;SDS011;5013;51.840;8.276;2023-04-12T10:26:51;2.43;;;1.40;;
9948;SDS011;5013;51.840;8.276;2023-04-12T10:29:27;1.70;;;1.40;;
9948;SDS011;5013;51.840;8.276;2023-04-12T10:31:53;1.53;;;1.40;;
9948;SDS011;5013;51.840;8.276;2023-04-12T10:34:25;2.73;;;1.33;;
9948;SDS011;5013;51.840;8.276;2023-04-12T10:36:56;1.70;;;1.00;;
9948;SDS011;5013;51.840;8.276;2023-04-12T10:39:39;2.13;;;1.40;;
9948;SDS011;5013;51.840;8.276;2023-04-12T10:44:44;1.43;;;1.10;;
9948;SDS011;5013;51.840;8.276;2023-04-12T10:47:11;0.80;;;0.80;;
9948;SDS011;5013;51.840;8.276;2023-04-12T10:49:37;1.00;;;0.90;;
9948;SDS011;5013;51.840;8.276;2023-04-12T10:52:10;2.07;;;1.40;;
9948;SDS011;5013;51.840;8.276;2023-04-12T10:54:37;1.63;;;1.30;;
9948;SDS011;5013;51.840;8.276;2023-04-12T10:57:02;5.17;;;1.30;;
9948;SDS011;5013;51.840;8.276;2023-04-12T11:02:16;2.73;;;1.30;;
9948;SDS011;5013;51.840;8.276;2023-04-12T11:07:43;3.10;;;1.10;;
9948;SDS011;5013;51.840;8.276;2023-04-12T11:10:13;2.83;;;1.00;;
9948;SDS011;5013;51.840;8.276;2023-04-12T11:12:40;1.10;;;1.03;;
9948;SDS011;5013;51.840;8.276;2023-04-12T11:15:12;1.70;;;1.13;;
9948;SDS011;5013;51.840;8.276;2023-04-12T11:17:37;1.10;;;0.80;;
9948;SDS011;5013;51.840;8.276;2023-04-12T11:20:03;1.50;;;0.90;;
9948;SDS011;5013;51.840;8.276;2023-04-12T11:22:34;0.73;;;0.73;;
9948;SDS011;5013;51.840;8.276;2023-04-12T11:25:01;0.87;;;0.87;;
9948;SDS011;5013;51.840;8.276;2023-04-12T11:27:27;0.90;;;0.90;;
9948;SDS011;5013;51.840;8.276;2023-04-12T11:29:54;0.97;;;0.80;;
9948;SDS011;5013;51.840;8.276;2023-04-12T11:32:25;0.57;;;0.57;;
9948;SDS011;5013;51.840;8.276;2023-04-12T11:34:52;0.97;;;0.53;;
9948;SDS011;5013;51.840;8.276;2023-04-12T11:37:19;0.67;;;0.60;;
9948;SDS011;5013;51.840;8.276;2023-04-12T11:39:46;0.50;;;0.50;;
9948;SDS011;5013;51.840;8.276;2023-04-12T11:42:15;0.57;;;0.57;;
9948;SDS011;5013;51.840;8.276;2023-04-12T11:44:42;0.70;;;0.70;;
9948;SDS011;5013;51.840;8.276;2023-04-12T11:47:12;0.57;;;0.50;;
9948;SDS011;5013;51.840;8.276;2023-04-12T11:49:42;1.47;;;0.60;;
9948;SDS011;5013;51.840;8.276;2023-04-12T11:52:13;1.70;;;0.60;;
9948;SDS011;5013;51.840;8.276;2023-04-12T11:54:41;0.70;;;0.70;;
9948;SDS011;5013;51.840;8.276;2023-04-12T11:57:09;0.70;;;0.70;;
9948;SDS011;5013;51.840;8.276;2023-04-12T11:59:36;2.13;;;0.70;;
9948;SDS011;5013;51.840;8.276;2023-04-12T12:02:01;0.70;;;0.70;;
9948;SDS011;5013;51.840;8.276;2023-04-12T12:04:28;0.70;;;0.70;;
9948;SDS011;5013;51.840;8.276;2023-04-12T12:06:55;0.80;;;0.80;;
9948;SDS011;5013;51.840;8.276;2023-04-12T12:09:22;0.70;;;0.70;;
9948;SDS011;5013;51.840;8.276;2023-04-12T12:11:49;0.77;;;0.77;;
9948;SDS011;5013;51.840;8.276;2023-04-12T12:14:22;0.60;;;0.60;;
9948;SDS011;5013;51.840;8.276;2023-04-12T12:16:55;0.43;;;0.43;;
9948;SDS011;5013;51.840;8.276;2023-04-12T12:22:05;0.70;;;0.70;;
9948;SDS011;5013;51.840;8.276;2023-04-12T12:24:54;0.83;;;0.73;;
9948;SDS011;5013;51.840;8.276;2023-04-12T12:27:21;0.80;;;0.80;;
9948;SDS011;5013;51.840;8.276;2023-04-12T12:29:49;1.27;;;1.27;;
9948;SDS011;5013;51.840;8.276;2023-04-12T12:32:17;0.77;;;0.77;;
9948;SDS011;5013;51.840;8.276;2023-04-12T12:34:51;0.83;;;0.83;;
9948;SDS011;5013;51.840;8.276;2023-04-12T12:37:27;0.60;;;0.60;;
9948;SDS011;5013;51.840;8.276;2023-04-12T12:40:06;1.00;;;1.00;;
9948;SDS011;5013;51.840;8.276;2023-04-12T12:42:49;0.83;;;0.83;;
9948;SDS011;5013;51.840;8.276;2023-04-12T12:45:20;0.97;;;0.97;;
9948;SDS011;5013;51.840;8.276;2023-04-12T12:47:49;1.27;;;1.00;;
9948;SDS011;5013;51.840;8.276;2023-04-12T12:50:29;0.93;;;0.93;;
9948;SDS011;5013;51.840;8.276;2023-04-12T12:52:55;1.00;;;1.00;;
9948;SDS011;5013;51.840;8.276;2023-04-12T12:55:23;1.13;;;1.13;;
9948;SDS011;5013;51.840;8.276;2023-04-12T12:57:50;1.00;;;1.00;;
9948;SDS011;5013;51.840;8.276;2023-04-12T13:00:17;1.20;;;1.20;;
9948;SDS011;5013;51.840;8.276;2023-04-12T13:02:44;1.23;;;1.13;;
9948;SDS011;5013;51.840;8.276;2023-04-12T13:05:10;1.70;;;1.60;;
9948;SDS011;5013;51.840;8.276;2023-04-12T13:07:36;2.20;;;2.10;;
9948;SDS011;5013;51.840;8.276;2023-04-12T13:10:02;2.60;;;1.70;;
9948;SDS011;5013;51.840;8.276;2023-04-12T13:12:29;4.37;;;2.40;;
9948;SDS011;5013;51.840;8.276;2023-04-12T13:14:56;2.00;;;1.90;;
9948;SDS011;5013;51.840;8.276;2023-04-12T13:17:24;2.80;;;2.70;;
9948;SDS011;5013;51.840;8.276;2023-04-12T13:19:50;4.27;;;3.20;;
9948;SDS011;5013;51.840;8.276;2023-04-12T13:22:16;4.20;;;4.00;;
9948;SDS011;5013;51.840;8.276;2023-04-12T13:24:42;3.97;;;3.57;;
9948;SDS011;5013;51.840;8.276;2023-04-12T13:27:08;4.47;;;4.27;;
9948;SDS011;5013;51.840;8.276;2023-04-12T13:29:34;5.33;;;4.83;;
9948;SDS011;5013;51.840;8.276;2023-04-12T13:32:00;5.20;;;4.70;;
9948;SDS011;5013;51.840;8.276;2023-04-12T13:34:26;4.47;;;4.27;;
9948;SDS011;5013;51.840;8.276;2023-04-12T13:36:51;4.40;;;4.20;;
9948;SDS011;5013;51.840;8.276;2023-04-12T13:39:17;5.17;;;4.87;;
9948;SDS011;5013;51.840;8.276;2023-04-12T13:41:43;5.57;;;5.27;;
9948;SDS011;5013;51.840;8.276;2023-04-12T13:44:09;5.33;;;5.03;;
9948;SDS011;5013;51.840;8.276;2023-04-12T13:46:34;5.70;;;5.30;;
9948;SDS011;5013;51.840;8.276;2023-04-12T13:49:00;5.90;;;5.60;;
9948;SDS011;5013;51.840;8.276;2023-04-12T13:51:26;8.37;;;7.77;;
9948;SDS011;5013;51.840;8.276;2023-04-12T13:53:52;6.60;;;6.20;;
9948;SDS011;5013;51.840;8.276;2023-04-12T13:56:18;6.10;;;5.80;;
9948;SDS011;5013;51.840;8.276;2023-04-12T13:58:44;7.10;;;6.60;;
9948;SDS011;5013;51.840;8.276;2023-04-12T14:01:10;5.77;;;5.47;;
9948;SDS011;5013;51.840;8.276;2023-04-12T14:03:37;7.00;;;6.60;;
9948;SDS011;5013;51.840;8.276;2023-04-12T14:06:03;7.40;;;7.00;;
9948;SDS011;5013;51.840;8.276;2023-04-12T14:08:30;6.80;;;6.47;;
9948;SDS011;5013;51.840;8.276;2023-04-12T14:10:55;7.43;;;6.73;;
9948;SDS011;5013;51.840;8.276;2023-04-12T14:13:21;5.70;;;5.20;;
9948;SDS011;5013;51.840;8.276;2023-04-12T14:15:49;5.47;;;5.10;;
9948;SDS011;5013;51.840;8.276;2023-04-12T14:18:15;4.63;;;4.40;;
9948;SDS011;5013;51.840;8.276;2023-04-12T14:20:41;5.23;;;4.93;;
9948;SDS011;5013;51.840;8.276;2023-04-12T14:23:07;4.70;;;4.50;;
9948;SDS011;5013;51.840;8.276;2023-04-12T14:25:34;5.33;;;5.03;;
9948;SDS011;5013;51.840;8.276;2023-04-12T14:28:02;5.40;;;5.10;;
9948;SDS011;5013;51.840;8.276;2023-04-12T14:30:28;5.47;;;5.07;;
9948;SDS011;5013;51.840;8.276;2023-04-12T14:32:53;5.43;;;5.03;;
9948;SDS011;5013;51.840;8.276;2023-04-12T14:35:19;5.20;;;4.90;;
9948;SDS011;5013;51.840;8.276;2023-04-12T14:37:45;4.80;;;4.50;;
9948;SDS011;5013;51.840;8.276;2023-04-12T14:40:11;5.13;;;4.70;;
9948;SDS011;5013;51.840;8.276;2023-04-12T14:42:36;4.87;;;4.57;;
9948;SDS011;5013;51.840;8.276;2023-04-12T14:45:02;3.20;;;3.00;;
9948;SDS011;5013;51.840;8.276;2023-04-12T14:47:30;2.90;;;2.80;;
9948;SDS011;5013;51.840;8.276;2023-04-12T14:49:56;2.60;;;2.50;;
9948;SDS011;5013;51.840;8.276;2023-04-12T14:52:21;2.67;;;2.57;;
9948;SDS011;5013;51.840;8.276;2023-04-12T14:54:47;1.97;;;1.97;;
9948;SDS011;5013;51.840;8.276;2023-04-12T14:57:12;1.73;;;1.73;;
9948;SDS011;5013;51.840;8.276;2023-04-12T14:59:39;1.90;;;1.90;;
9948;SDS011;5013;51.840;8.276;2023-04-12T15:02:04;4.00;;;3.80;;
9948;SDS011;5013;51.840;8.276;2023-04-12T15:04:30;16.93;;;13.57;;
9948;SDS011;5013;51.840;8.276;2023-04-12T15:06:56;27.17;;;18.93;;
9948;SDS011;5013;51.840;8.276;2023-04-12T15:09:21;3.27;;;2.97;;
9948;SDS011;5013;51.840;8.276;2023-04-12T15:11:50;2.43;;;2.27;;
9948;SDS011;5013;51.840;8.276;2023-04-12T15:14:24;4.23;;;1.70;;
9948;SDS011;5013;51.840;8.276;2023-04-12T15:16:50;2.43;;;2.30;;
9948;SDS011;5013;51.840;8.276;2023-04-12T15:19:16;22.50;;;11.37;;
9948;SDS011;5013;51.840;8.276;2023-04-12T15:21:43;13.33;;;7.77;;
9948;SDS011;5013;51.840;8.276;2023-04-12T15:24:10;19.50;;;8.27;;
9948;SDS011;5013;51.840;8.276;2023-04-12T15:26:36;15.77;;;7.53;;
9948;SDS011;5013;51.840;8.276;2023-04-12T15:29:01;4.30;;;3.13;;
9948;SDS011;5013;51.840;8.276;2023-04-12T15:31:27;3.97;;;2.77;;
9948;SDS011;5013;51.840;8.276;2023-04-12T15:33:53;4.00;;;2.83;;